sensor_id;sensor_type;location;lat;lon;timestamp;P1;durP1;ratioP1;P2;durP2;ratioP2
31730;SDS011;18310;55.586;12.286;2022-12-19T00:01:37;20.30;;;10.55;;
31730;SDS011;18310;55.586;12.286;2022-12-19T00:04:42;24.50;;;11.73;;
31730;SDS011;18310;55.586;12.286;2022-12-19T00:07:46;23.45;;;10.18;;
31730;SDS011;18310;55.586;12.286;2022-12-19T00:10:53;25.05;;;10.60;;
31730;SDS011;18310;55.586;12.286;2022-12-19T00:13:57;25.17;;;12.05;;
31730;SDS011;18310;55.586;12.286;2022-12-19T00:17:01;24.38;;;11.85;;
31730;SDS011;18310;55.586;12.286;2022-12-19T00:20:06;21.55;;;11.77;;
31730;SDS011;18310;55.586;12.286;2022-12-19T00:23:11;27.25;;;12.90;;
31730;SDS011;18310;55.586;12.286;2022-12-19T00:26:15;31.55;;;13.32;;
31730;SDS011;18310;55.586;12.286;2022-12-19T00:29:20;29.42;;;13.43;;
31730;SDS011;18310;55.586;12.286;2022-12-19T00:32:23;32.92;;;14.23;;
31730;SDS011;18310;55.586;12.286;2022-12-19T00:35:27;29.90;;;14.98;;
31730;SDS011;18310;55.586;12.286;2022-12-19T00:38:30;27.65;;;13.48;;
31730;SDS011;18310;55.586;12.286;2022-12-19T00:41:34;29.90;;;13.73;;
31730;SDS011;18310;55.586;12.286;2022-12-19T00:44:42;30.33;;;13.57;;
31730;SDS011;18310;55.586;12.286;2022-12-19T00:47:45;32.13;;;14.15;;
31730;SDS011;18310;55.586;12.286;2022-12-19T00:50:57;35.10;;;15.73;;
31730;SDS011;18310;55.586;12.286;2022-12-19T00:54:01;33.45;;;13.38;;
31730;SDS011;18310;55.586;12.286;2022-12-19T00:57:08;26.00;;;13.57;;
31730;SDS011;18310;55.586;12.286;2022-12-19T01:00:11;26.77;;;13.30;;
31730;SDS011;18310;55.586;12.286;2022-12-19T01:03:16;26.90;;;12.40;;
31730;SDS011;18310;55.586;12.286;2022-12-19T01:06:21;31.43;;;11.97;;
31730;SDS011;18310;55.586;12.286;2022-12-19T01:09:24;32.72;;;13.65;;
31730;SDS011;18310;55.586;12.286;2022-12-19T01:12:27;28.00;;;13.33;;
31730;SDS011;18310;55.586;12.286;2022-12-19T01:15:49;27.80;;;13.70;;
31730;SDS011;18310;55.586;12.286;2022-12-19T01:18:52;25.53;;;13.60;;
31730;SDS011;18310;55.586;12.286;2022-12-19T01:21:56;25.10;;;12.63;;
31730;SDS011;18310;55.586;12.286;2022-12-19T01:25:00;29.05;;;14.07;;
31730;SDS011;18310;55.586;12.286;2022-12-19T01:28:03;25.70;;;12.10;;
31730;SDS011;18310;55.586;12.286;2022-12-19T01:31:11;28.23;;;11.75;;
31730;SDS011;18310;55.586;12.286;2022-12-19T01:34:15;27.92;;;12.75;;
31730;SDS011;18310;55.586;12.286;2022-12-19T01:37:20;24.80;;;12.27;;
31730;SDS011;18310;55.586;12.286;2022-12-19T01:40:23;29.48;;;12.98;;
31730;SDS011;18310;55.586;12.286;2022-12-19T01:43:28;26.83;;;13.67;;
31730;SDS011;18310;55.586;12.286;2022-12-19T01:46:35;26.08;;;12.18;;
31730;SDS011;18310;55.586;12.286;2022-12-19T01:49:42;30.20;;;13.07;;
31730;SDS011;18310;55.586;12.286;2022-12-19T01:52:46;31.73;;;14.20;;
31730;SDS011;18310;55.586;12.286;2022-12-19T01:55:49;32.80;;;13.32;;
31730;SDS011;18310;55.586;12.286;2022-12-19T01:58:54;31.85;;;13.18;;
31730;SDS011;18310;55.586;12.286;2022-12-19T02:02:08;30.33;;;13.45;;
31730;SDS011;18310;55.586;12.286;2022-12-19T02:05:16;31.52;;;14.40;;
31730;SDS011;18310;55.586;12.286;2022-12-19T02:08:20;29.77;;;13.75;;
31730;SDS011;18310;55.586;12.286;2022-12-19T02:11:27;33.80;;;15.07;;
31730;SDS011;18310;55.586;12.286;2022-12-19T02:14:30;30.23;;;14.97;;
31730;SDS011;18310;55.586;12.286;2022-12-19T02:17:36;32.50;;;14.38;;
31730;SDS011;18310;55.586;12.286;2022-12-19T02:31:49;32.72;;;16.73;;
31730;SDS011;18310;55.586;12.286;2022-12-19T02:35:00;39.97;;;16.02;;
31730;SDS011;18310;55.586;12.286;2022-12-19T02:38:15;30.63;;;15.43;;
31730;SDS011;18310;55.586;12.286;2022-12-19T02:41:27;36.50;;;16.30;;
31730;SDS011;18310;55.586;12.286;2022-12-19T02:44:44;32.28;;;16.52;;
31730;SDS011;18310;55.586;12.286;2022-12-19T02:47:53;32.22;;;17.27;;
31730;SDS011;18310;55.586;12.286;2022-12-19T02:51:04;38.70;;;16.95;;
31730;SDS011;18310;55.586;12.286;2022-12-19T02:54:07;36.53;;;17.00;;
31730;SDS011;18310;55.586;12.286;2022-12-19T02:57:13;35.63;;;16.15;;
31730;SDS011;18310;55.586;12.286;2022-12-19T03:00:28;32.25;;;16.40;;
31730;SDS011;18310;55.586;12.286;2022-12-19T03:03:36;32.53;;;15.88;;
31730;SDS011;18310;55.586;12.286;2022-12-19T03:06:51;26.92;;;14.15;;
31730;SDS011;18310;55.586;12.286;2022-12-19T03:10:04;29.87;;;14.67;;
31730;SDS011;18310;55.586;12.286;2022-12-19T03:13:20;34.75;;;14.75;;
31730;SDS011;18310;55.586;12.286;2022-12-19T03:16:30;27.02;;;13.73;;
31730;SDS011;18310;55.586;12.286;2022-12-19T03:19:38;30.27;;;14.02;;
31730;SDS011;18310;55.586;12.286;2022-12-19T03:22:42;25.98;;;13.38;;
31730;SDS011;18310;55.586;12.286;2022-12-19T03:25:47;26.98;;;12.98;;
31730;SDS011;18310;55.586;12.286;2022-12-19T03:28:58;28.27;;;12.88;;
31730;SDS011;18310;55.586;12.286;2022-12-19T03:32:16;27.48;;;13.35;;
31730;SDS011;18310;55.586;12.286;2022-12-19T03:35:23;24.63;;;13.25;;
31730;SDS011;18310;55.586;12.286;2022-12-19T03:38:30;28.80;;;13.65;;
31730;SDS011;18310;55.586;12.286;2022-12-19T03:41:37;22.58;;;11.68;;
31730;SDS011;18310;55.586;12.286;2022-12-19T03:45:09;24.85;;;12.15;;
31730;SDS011;18310;55.586;12.286;2022-12-19T03:48:18;28.38;;;12.70;;
31730;SDS011;18310;55.586;12.286;2022-12-19T03:51:30;28.00;;;12.70;;
31730;SDS011;18310;55.586;12.286;2022-12-19T03:54:45;25.50;;;12.57;;
31730;SDS011;18310;55.586;12.286;2022-12-19T03:57:58;26.80;;;12.52;;
31730;SDS011;18310;55.586;12.286;2022-12-19T04:01:08;27.90;;;12.32;;
31730;SDS011;18310;55.586;12.286;2022-12-19T04:04:12;27.27;;;12.38;;
31730;SDS011;18310;55.586;12.286;2022-12-19T04:07:18;24.27;;;12.27;;
31730;SDS011;18310;55.586;12.286;2022-12-19T04:10:23;28.90;;;12.35;;
31730;SDS011;18310;55.586;12.286;2022-12-19T04:13:33;26.42;;;12.63;;
31730;SDS011;18310;55.586;12.286;2022-12-19T04:16:43;26.45;;;13.55;;
31730;SDS011;18310;55.586;12.286;2022-12-19T04:19:54;26.63;;;13.20;;
31730;SDS011;18310;55.586;12.286;2022-12-19T04:23:05;24.45;;;12.32;;
31730;SDS011;18310;55.586;12.286;2022-12-19T04:26:16;27.00;;;12.18;;
31730;SDS011;18310;55.586;12.286;2022-12-19T04:29:22;27.48;;;12.75;;
31730;SDS011;18310;55.586;12.286;2022-12-19T04:32:28;25.70;;;12.60;;
31730;SDS011;18310;55.586;12.286;2022-12-19T04:35:35;26.90;;;12.82;;
31730;SDS011;18310;55.586;12.286;2022-12-19T04:38:40;25.60;;;12.57;;
31730;SDS011;18310;55.586;12.286;2022-12-19T04:41:43;25.45;;;13.23;;
31730;SDS011;18310;55.586;12.286;2022-12-19T04:44:46;25.73;;;11.50;;
31730;SDS011;18310;55.586;12.286;2022-12-19T04:47:49;28.20;;;12.30;;
31730;SDS011;18310;55.586;12.286;2022-12-19T04:50:52;29.05;;;12.70;;
31730;SDS011;18310;55.586;12.286;2022-12-19T04:53:57;21.80;;;11.95;;
31730;SDS011;18310;55.586;12.286;2022-12-19T04:57:00;27.30;;;12.40;;
31730;SDS011;18310;55.586;12.286;2022-12-19T05:00:04;25.67;;;11.30;;
31730;SDS011;18310;55.586;12.286;2022-12-19T05:03:08;25.50;;;12.50;;
31730;SDS011;18310;55.586;12.286;2022-12-19T05:06:12;29.13;;;12.50;;
31730;SDS011;18310;55.586;12.286;2022-12-19T05:09:18;28.35;;;12.20;;
31730;SDS011;18310;55.586;12.286;2022-12-19T05:12:22;26.02;;;12.20;;
31730;SDS011;18310;55.586;12.286;2022-12-19T05:15:25;27.45;;;12.90;;
31730;SDS011;18310;55.586;12.286;2022-12-19T05:18:28;26.00;;;12.15;;
31730;SDS011;18310;55.586;12.286;2022-12-19T05:21:32;25.65;;;12.80;;
31730;SDS011;18310;55.586;12.286;2022-12-19T05:24:37;28.77;;;13.18;;
31730;SDS011;18310;55.586;12.286;2022-12-19T05:27:40;27.30;;;11.75;;
31730;SDS011;18310;55.586;12.286;2022-12-19T05:30:43;26.15;;;12.77;;
31730;SDS011;18310;55.586;12.286;2022-12-19T05:33:52;29.88;;;12.63;;
31730;SDS011;18310;55.586;12.286;2022-12-19T05:36:55;24.67;;;12.60;;
31730;SDS011;18310;55.586;12.286;2022-12-19T05:40:01;28.05;;;12.18;;
31730;SDS011;18310;55.586;12.286;2022-12-19T05:43:05;25.85;;;12.38;;
31730;SDS011;18310;55.586;12.286;2022-12-19T05:46:08;26.60;;;12.57;;
31730;SDS011;18310;55.586;12.286;2022-12-19T05:49:11;28.00;;;12.77;;
31730;SDS011;18310;55.586;12.286;2022-12-19T05:52:18;23.85;;;12.40;;
31730;SDS011;18310;55.586;12.286;2022-12-19T05:55:23;30.80;;;11.63;;
31730;SDS011;18310;55.586;12.286;2022-12-19T05:58:26;25.77;;;12.98;;
31730;SDS011;18310;55.586;12.286;2022-12-19T06:01:29;26.33;;;12.30;;
31730;SDS011;18310;55.586;12.286;2022-12-19T06:04:32;25.40;;;13.10;;
31730;SDS011;18310;55.586;12.286;2022-12-19T06:07:39;25.98;;;13.18;;
31730;SDS011;18310;55.586;12.286;2022-12-19T06:10:43;26.95;;;13.18;;
31730;SDS011;18310;55.586;12.286;2022-12-19T06:13:46;33.70;;;13.32;;
31730;SDS011;18310;55.586;12.286;2022-12-19T06:16:50;29.10;;;12.63;;
31730;SDS011;18310;55.586;12.286;2022-12-19T06:19:53;28.60;;;12.90;;
31730;SDS011;18310;55.586;12.286;2022-12-19T06:22:56;30.73;;;13.98;;
31730;SDS011;18310;55.586;12.286;2022-12-19T06:26:02;29.95;;;13.20;;
31730;SDS011;18310;55.586;12.286;2022-12-19T06:29:07;29.23;;;13.48;;
31730;SDS011;18310;55.586;12.286;2022-12-19T06:32:10;27.17;;;12.87;;
31730;SDS011;18310;55.586;12.286;2022-12-19T06:35:14;25.60;;;12.83;;
31730;SDS011;18310;55.586;12.286;2022-12-19T06:38:18;32.17;;;12.07;;
31730;SDS011;18310;55.586;12.286;2022-12-19T06:41:22;29.45;;;12.98;;
31730;SDS011;18310;55.586;12.286;2022-12-19T06:44:43;27.80;;;14.07;;
31730;SDS011;18310;55.586;12.286;2022-12-19T06:47:48;28.58;;;14.27;;
31730;SDS011;18310;55.586;12.286;2022-12-19T06:50:51;28.25;;;12.40;;
31730;SDS011;18310;55.586;12.286;2022-12-19T06:53:54;31.00;;;13.45;;
31730;SDS011;18310;55.586;12.286;2022-12-19T06:57:00;25.75;;;12.52;;
31730;SDS011;18310;55.586;12.286;2022-12-19T07:00:04;35.35;;;13.63;;
31730;SDS011;18310;55.586;12.286;2022-12-19T07:03:09;26.65;;;13.50;;
31730;SDS011;18310;55.586;12.286;2022-12-19T07:06:17;24.77;;;13.10;;
31730;SDS011;18310;55.586;12.286;2022-12-19T07:09:20;27.55;;;13.52;;
31730;SDS011;18310;55.586;12.286;2022-12-19T07:12:24;26.93;;;13.10;;
31730;SDS011;18310;55.586;12.286;2022-12-19T07:15:28;26.90;;;13.10;;
31730;SDS011;18310;55.586;12.286;2022-12-19T07:18:35;26.50;;;13.40;;
31730;SDS011;18310;55.586;12.286;2022-12-19T07:21:40;26.45;;;13.55;;
31730;SDS011;18310;55.586;12.286;2022-12-19T07:24:43;28.20;;;13.63;;
31730;SDS011;18310;55.586;12.286;2022-12-19T07:27:48;31.27;;;13.97;;
31730;SDS011;18310;55.586;12.286;2022-12-19T07:30:52;30.05;;;13.43;;
31730;SDS011;18310;55.586;12.286;2022-12-19T07:33:55;25.25;;;12.88;;
31730;SDS011;18310;55.586;12.286;2022-12-19T07:36:59;28.95;;;12.98;;
31730;SDS011;18310;55.586;12.286;2022-12-19T07:40:03;24.63;;;12.57;;
31730;SDS011;18310;55.586;12.286;2022-12-19T07:43:09;27.95;;;13.75;;
31730;SDS011;18310;55.586;12.286;2022-12-19T07:46:12;28.65;;;13.13;;
31730;SDS011;18310;55.586;12.286;2022-12-19T07:49:15;28.58;;;14.15;;
31730;SDS011;18310;55.586;12.286;2022-12-19T07:52:23;23.83;;;12.98;;
31730;SDS011;18310;55.586;12.286;2022-12-19T07:55:26;24.80;;;13.00;;
31730;SDS011;18310;55.586;12.286;2022-12-19T07:58:31;29.52;;;13.52;;
31730;SDS011;18310;55.586;12.286;2022-12-19T08:01:34;29.63;;;13.48;;
31730;SDS011;18310;55.586;12.286;2022-12-19T08:04:37;27.77;;;12.70;;
31730;SDS011;18310;55.586;12.286;2022-12-19T08:07:40;27.80;;;12.70;;
31730;SDS011;18310;55.586;12.286;2022-12-19T08:10:43;27.60;;;13.50;;
31730;SDS011;18310;55.586;12.286;2022-12-19T08:13:48;25.97;;;12.83;;
31730;SDS011;18310;55.586;12.286;2022-12-19T08:16:52;30.42;;;13.45;;
31730;SDS011;18310;55.586;12.286;2022-12-19T08:20:15;29.67;;;13.10;;
31730;SDS011;18310;55.586;12.286;2022-12-19T08:23:18;23.90;;;13.00;;
31730;SDS011;18310;55.586;12.286;2022-12-19T08:26:21;24.00;;;12.40;;
31730;SDS011;18310;55.586;12.286;2022-12-19T08:29:27;28.52;;;13.38;;
31730;SDS011;18310;55.586;12.286;2022-12-19T08:32:30;29.10;;;12.93;;
31730;SDS011;18310;55.586;12.286;2022-12-19T08:35:34;20.35;;;11.98;;
31730;SDS011;18310;55.586;12.286;2022-12-19T08:38:38;39.88;;;14.68;;
31730;SDS011;18310;55.586;12.286;2022-12-19T08:41:41;22.42;;;12.93;;
31730;SDS011;18310;55.586;12.286;2022-12-19T08:44:46;29.30;;;12.87;;
31730;SDS011;18310;55.586;12.286;2022-12-19T08:47:49;27.70;;;13.65;;
31730;SDS011;18310;55.586;12.286;2022-12-19T08:50:52;28.97;;;13.90;;
31730;SDS011;18310;55.586;12.286;2022-12-19T08:53:58;29.48;;;13.75;;
31730;SDS011;18310;55.586;12.286;2022-12-19T08:57:02;28.10;;;13.68;;
31730;SDS011;18310;55.586;12.286;2022-12-19T09:00:07;28.50;;;13.53;;
31730;SDS011;18310;55.586;12.286;2022-12-19T09:03:13;24.40;;;12.32;;
31730;SDS011;18310;55.586;12.286;2022-12-19T09:06:18;27.58;;;12.82;;
31730;SDS011;18310;55.586;12.286;2022-12-19T09:09:22;25.43;;;12.30;;
31730;SDS011;18310;55.586;12.286;2022-12-19T09:12:25;30.63;;;13.43;;
31730;SDS011;18310;55.586;12.286;2022-12-19T09:15:29;28.23;;;12.40;;
31730;SDS011;18310;55.586;12.286;2022-12-19T09:18:32;25.85;;;12.75;;
31730;SDS011;18310;55.586;12.286;2022-12-19T09:21:36;27.67;;;12.90;;
31730;SDS011;18310;55.586;12.286;2022-12-19T09:24:39;26.92;;;13.10;;
31730;SDS011;18310;55.586;12.286;2022-12-19T09:27:42;27.73;;;12.50;;
31730;SDS011;18310;55.586;12.286;2022-12-19T09:31:07;27.73;;;13.55;;
31730;SDS011;18310;55.586;12.286;2022-12-19T09:34:15;27.55;;;13.23;;
31730;SDS011;18310;55.586;12.286;2022-12-19T09:37:22;27.67;;;12.95;;
31730;SDS011;18310;55.586;12.286;2022-12-19T09:40:25;29.98;;;13.32;;
31730;SDS011;18310;55.586;12.286;2022-12-19T09:43:41;26.75;;;13.65;;
31730;SDS011;18310;55.586;12.286;2022-12-19T09:47:04;26.33;;;12.32;;
31730;SDS011;18310;55.586;12.286;2022-12-19T09:50:20;25.17;;;12.93;;
31730;SDS011;18310;55.586;12.286;2022-12-19T09:53:34;26.83;;;11.82;;
31730;SDS011;18310;55.586;12.286;2022-12-19T09:56:56;24.33;;;12.68;;
31730;SDS011;18310;55.586;12.286;2022-12-19T10:00:06;26.15;;;13.02;;
31730;SDS011;18310;55.586;12.286;2022-12-19T10:03:16;26.63;;;12.52;;
31730;SDS011;18310;55.586;12.286;2022-12-19T10:06:27;21.17;;;12.98;;
31730;SDS011;18310;55.586;12.286;2022-12-19T10:09:51;23.98;;;12.88;;
31730;SDS011;18310;55.586;12.286;2022-12-19T10:16:35;24.25;;;11.90;;
31730;SDS011;18310;55.586;12.286;2022-12-19T10:20:14;27.27;;;12.95;;
31730;SDS011;18310;55.586;12.286;2022-12-19T10:27:02;26.02;;;12.57;;
31730;SDS011;18310;55.586;12.286;2022-12-19T10:30:17;30.08;;;13.50;;
31730;SDS011;18310;55.586;12.286;2022-12-19T10:33:25;30.30;;;13.38;;
31730;SDS011;18310;55.586;12.286;2022-12-19T10:36:38;30.77;;;14.05;;
31730;SDS011;18310;55.586;12.286;2022-12-19T10:40:09;27.30;;;14.35;;
31730;SDS011;18310;55.586;12.286;2022-12-19T10:43:30;29.35;;;13.45;;
31730;SDS011;18310;55.586;12.286;2022-12-19T10:46:46;27.08;;;13.57;;
31730;SDS011;18310;55.586;12.286;2022-12-19T10:49:51;26.80;;;14.02;;
31730;SDS011;18310;55.586;12.286;2022-12-19T10:53:04;30.23;;;13.23;;
31730;SDS011;18310;55.586;12.286;2022-12-19T10:56:11;26.75;;;13.73;;
31730;SDS011;18310;55.586;12.286;2022-12-19T11:02:31;29.98;;;13.82;;
31730;SDS011;18310;55.586;12.286;2022-12-19T11:05:45;28.08;;;13.18;;
31730;SDS011;18310;55.586;12.286;2022-12-19T11:09:04;26.50;;;13.23;;
31730;SDS011;18310;55.586;12.286;2022-12-19T11:12:23;23.05;;;13.27;;
31730;SDS011;18310;55.586;12.286;2022-12-19T11:15:49;27.48;;;13.80;;
31730;SDS011;18310;55.586;12.286;2022-12-19T11:19:23;31.63;;;14.77;;
31730;SDS011;18310;55.586;12.286;2022-12-19T11:22:54;27.85;;;14.18;;
31730;SDS011;18310;55.586;12.286;2022-12-19T11:26:35;28.58;;;14.60;;
31730;SDS011;18310;55.586;12.286;2022-12-19T11:30:06;29.10;;;14.00;;
31730;SDS011;18310;55.586;12.286;2022-12-19T11:33:42;29.98;;;13.43;;
31730;SDS011;18310;55.586;12.286;2022-12-19T11:36:48;29.30;;;13.52;;
31730;SDS011;18310;55.586;12.286;2022-12-19T11:40:01;26.23;;;12.80;;
31730;SDS011;18310;55.586;12.286;2022-12-19T11:43:14;26.85;;;14.18;;
31730;SDS011;18310;55.586;12.286;2022-12-19T11:46:46;30.30;;;13.23;;
31730;SDS011;18310;55.586;12.286;2022-12-19T11:50:00;27.52;;;14.20;;
31730;SDS011;18310;55.586;12.286;2022-12-19T11:53:13;27.52;;;13.77;;
31730;SDS011;18310;55.586;12.286;2022-12-19T11:56:24;29.38;;;15.27;;
31730;SDS011;18310;55.586;12.286;2022-12-19T11:59:31;28.20;;;14.02;;
31730;SDS011;18310;55.586;12.286;2022-12-19T12:02:52;29.33;;;13.50;;
31730;SDS011;18310;55.586;12.286;2022-12-19T12:06:21;25.83;;;13.90;;
31730;SDS011;18310;55.586;12.286;2022-12-19T12:09:34;28.73;;;13.75;;
31730;SDS011;18310;55.586;12.286;2022-12-19T12:13:05;25.52;;;12.20;;
31730;SDS011;18310;55.586;12.286;2022-12-19T12:16:42;31.67;;;14.18;;
31730;SDS011;18310;55.586;12.286;2022-12-19T12:20:35;27.85;;;13.98;;
31730;SDS011;18310;55.586;12.286;2022-12-19T12:24:13;27.02;;;13.50;;
31730;SDS011;18310;55.586;12.286;2022-12-19T12:28:00;25.30;;;13.88;;
31730;SDS011;18310;55.586;12.286;2022-12-19T12:31:47;28.02;;;13.60;;
31730;SDS011;18310;55.586;12.286;2022-12-19T12:35:29;29.40;;;13.98;;
31730;SDS011;18310;55.586;12.286;2022-12-19T12:39:01;29.13;;;14.57;;
31730;SDS011;18310;55.586;12.286;2022-12-19T12:42:24;28.50;;;14.60;;
31730;SDS011;18310;55.586;12.286;2022-12-19T12:45:44;25.70;;;13.77;;
31730;SDS011;18310;55.586;12.286;2022-12-19T12:48:50;29.23;;;14.83;;
31730;SDS011;18310;55.586;12.286;2022-12-19T12:52:02;32.05;;;13.70;;
31730;SDS011;18310;55.586;12.286;2022-12-19T12:55:11;26.70;;;14.07;;
31730;SDS011;18310;55.586;12.286;2022-12-19T13:02:06;28.92;;;14.57;;
31730;SDS011;18310;55.586;12.286;2022-12-19T13:05:28;33.83;;;14.57;;
31730;SDS011;18310;55.586;12.286;2022-12-19T13:08:44;27.17;;;13.75;;
31730;SDS011;18310;55.586;12.286;2022-12-19T13:11:50;27.33;;;13.55;;
31730;SDS011;18310;55.586;12.286;2022-12-19T13:15:29;25.85;;;12.85;;
31730;SDS011;18310;55.586;12.286;2022-12-19T13:18:39;27.83;;;13.95;;
31730;SDS011;18310;55.586;12.286;2022-12-19T13:25:45;28.80;;;12.52;;
31730;SDS011;18310;55.586;12.286;2022-12-19T13:28:52;25.50;;;12.60;;
31730;SDS011;18310;55.586;12.286;2022-12-19T13:32:12;26.95;;;13.38;;
31730;SDS011;18310;55.586;12.286;2022-12-19T13:35:30;32.78;;;14.35;;
31730;SDS011;18310;55.586;12.286;2022-12-19T13:38:57;25.58;;;13.25;;
31730;SDS011;18310;55.586;12.286;2022-12-19T13:42:21;27.98;;;13.38;;
31730;SDS011;18310;55.586;12.286;2022-12-19T13:45:49;26.77;;;13.63;;
31730;SDS011;18310;55.586;12.286;2022-12-19T13:48:56;27.63;;;14.10;;
31730;SDS011;18310;55.586;12.286;2022-12-19T13:52:05;22.95;;;13.35;;
31730;SDS011;18310;55.586;12.286;2022-12-19T13:55:14;26.95;;;14.18;;
31730;SDS011;18310;55.586;12.286;2022-12-19T13:58:20;29.33;;;14.50;;
31730;SDS011;18310;55.586;12.286;2022-12-19T14:01:30;28.17;;;13.60;;
31730;SDS011;18310;55.586;12.286;2022-12-19T14:04:38;24.67;;;14.05;;
31730;SDS011;18310;55.586;12.286;2022-12-19T14:10:48;30.30;;;14.50;;
31730;SDS011;18310;55.586;12.286;2022-12-19T14:14:15;26.42;;;13.52;;
31730;SDS011;18310;55.586;12.286;2022-12-19T14:17:38;28.63;;;13.57;;
31730;SDS011;18310;55.586;12.286;2022-12-19T14:20:41;24.95;;;13.05;;
31730;SDS011;18310;55.586;12.286;2022-12-19T14:24:08;31.17;;;13.75;;
31730;SDS011;18310;55.586;12.286;2022-12-19T14:27:16;24.38;;;12.38;;
31730;SDS011;18310;55.586;12.286;2022-12-19T14:30:52;22.88;;;12.55;;
31730;SDS011;18310;55.586;12.286;2022-12-19T14:34:01;22.77;;;11.95;;
31730;SDS011;18310;55.586;12.286;2022-12-19T14:37:28;24.92;;;12.38;;
31730;SDS011;18310;55.586;12.286;2022-12-19T14:40:54;22.27;;;12.02;;
31730;SDS011;18310;55.586;12.286;2022-12-19T14:44:11;22.02;;;11.77;;
31730;SDS011;18310;55.586;12.286;2022-12-19T14:47:34;17.67;;;9.97;;
31730;SDS011;18310;55.586;12.286;2022-12-19T14:51:03;20.35;;;10.23;;
31730;SDS011;18310;55.586;12.286;2022-12-19T14:54:34;19.33;;;10.82;;
31730;SDS011;18310;55.586;12.286;2022-12-19T14:57:57;18.70;;;9.80;;
31730;SDS011;18310;55.586;12.286;2022-12-19T15:01:30;20.38;;;11.20;;
31730;SDS011;18310;55.586;12.286;2022-12-19T15:04:38;18.58;;;10.13;;
31730;SDS011;18310;55.586;12.286;2022-12-19T15:07:55;16.17;;;9.18;;
31730;SDS011;18310;55.586;12.286;2022-12-19T15:11:01;19.95;;;9.40;;
31730;SDS011;18310;55.586;12.286;2022-12-19T15:14:41;15.15;;;8.60;;
31730;SDS011;18310;55.586;12.286;2022-12-19T15:18:02;17.88;;;9.50;;
31730;SDS011;18310;55.586;12.286;2022-12-19T15:21:19;18.50;;;9.45;;
31730;SDS011;18310;55.586;12.286;2022-12-19T15:24:22;15.30;;;8.68;;
31730;SDS011;18310;55.586;12.286;2022-12-19T15:27:25;13.60;;;8.35;;
31730;SDS011;18310;55.586;12.286;2022-12-19T15:30:28;15.20;;;8.23;;
31730;SDS011;18310;55.586;12.286;2022-12-19T15:33:38;14.35;;;8.20;;
31730;SDS011;18310;55.586;12.286;2022-12-19T15:37:01;15.40;;;8.32;;
31730;SDS011;18310;55.586;12.286;2022-12-19T15:40:05;19.80;;;12.15;;
31730;SDS011;18310;55.586;12.286;2022-12-19T15:43:14;17.63;;;9.45;;
31730;SDS011;18310;55.586;12.286;2022-12-19T15:46:41;15.57;;;9.00;;
31730;SDS011;18310;55.586;12.286;2022-12-19T15:49:51;14.70;;;8.52;;
31730;SDS011;18310;55.586;12.286;2022-12-19T15:52:54;15.82;;;8.20;;
31730;SDS011;18310;55.586;12.286;2022-12-19T15:56:00;16.38;;;9.57;;
31730;SDS011;18310;55.586;12.286;2022-12-19T15:59:04;16.23;;;9.02;;
31730;SDS011;18310;55.586;12.286;2022-12-19T16:02:20;19.15;;;9.27;;
31730;SDS011;18310;55.586;12.286;2022-12-19T16:05:38;18.55;;;9.50;;
31730;SDS011;18310;55.586;12.286;2022-12-19T16:08:42;16.58;;;9.82;;
31730;SDS011;18310;55.586;12.286;2022-12-19T16:11:45;16.97;;;9.60;;
31730;SDS011;18310;55.586;12.286;2022-12-19T16:14:52;16.02;;;9.75;;
31730;SDS011;18310;55.586;12.286;2022-12-19T16:17:59;17.30;;;10.00;;
31730;SDS011;18310;55.586;12.286;2022-12-19T16:21:05;19.83;;;11.32;;
31730;SDS011;18310;55.586;12.286;2022-12-19T16:24:17;20.15;;;11.10;;
31730;SDS011;18310;55.586;12.286;2022-12-19T16:30:27;15.55;;;9.95;;
31730;SDS011;18310;55.586;12.286;2022-12-19T16:33:32;18.30;;;10.95;;
31730;SDS011;18310;55.586;12.286;2022-12-19T16:36:37;18.63;;;11.15;;
31730;SDS011;18310;55.586;12.286;2022-12-19T16:39:40;21.30;;;12.10;;
31730;SDS011;18310;55.586;12.286;2022-12-19T16:42:45;19.67;;;10.70;;
31730;SDS011;18310;55.586;12.286;2022-12-19T16:45:50;17.83;;;10.98;;
31730;SDS011;18310;55.586;12.286;2022-12-19T16:49:00;19.88;;;10.50;;
31730;SDS011;18310;55.586;12.286;2022-12-19T16:52:08;23.75;;;12.30;;
31730;SDS011;18310;55.586;12.286;2022-12-19T16:55:12;23.95;;;11.90;;
31730;SDS011;18310;55.586;12.286;2022-12-19T16:58:17;26.08;;;11.63;;
31730;SDS011;18310;55.586;12.286;2022-12-19T17:01:23;21.77;;;12.13;;
31730;SDS011;18310;55.586;12.286;2022-12-19T17:04:26;25.03;;;12.90;;
31730;SDS011;18310;55.586;12.286;2022-12-19T17:07:33;20.30;;;12.95;;
31730;SDS011;18310;55.586;12.286;2022-12-19T17:10:44;23.15;;;14.18;;
31730;SDS011;18310;55.586;12.286;2022-12-19T17:13:49;22.70;;;12.23;;
31730;SDS011;18310;55.586;12.286;2022-12-19T17:16:56;23.63;;;12.25;;
31730;SDS011;18310;55.586;12.286;2022-12-19T17:20:00;22.55;;;12.15;;
31730;SDS011;18310;55.586;12.286;2022-12-19T17:23:08;18.83;;;12.00;;
31730;SDS011;18310;55.586;12.286;2022-12-19T17:26:15;19.52;;;11.95;;
31730;SDS011;18310;55.586;12.286;2022-12-19T17:29:19;20.00;;;12.17;;
31730;SDS011;18310;55.586;12.286;2022-12-19T17:32:22;20.90;;;11.18;;
31730;SDS011;18310;55.586;12.286;2022-12-19T17:35:26;17.23;;;11.20;;
31730;SDS011;18310;55.586;12.286;2022-12-19T17:38:36;18.85;;;10.65;;
31730;SDS011;18310;55.586;12.286;2022-12-19T17:41:39;19.27;;;10.88;;
31730;SDS011;18310;55.586;12.286;2022-12-19T17:44:43;21.07;;;10.87;;
31730;SDS011;18310;55.586;12.286;2022-12-19T17:47:46;18.05;;;10.15;;
31730;SDS011;18310;55.586;12.286;2022-12-19T17:50:55;19.00;;;10.60;;
31730;SDS011;18310;55.586;12.286;2022-12-19T17:54:01;16.55;;;10.45;;
31730;SDS011;18310;55.586;12.286;2022-12-19T17:57:12;16.83;;;11.05;;
31730;SDS011;18310;55.586;12.286;2022-12-19T18:00:18;15.10;;;9.68;;
31730;SDS011;18310;55.586;12.286;2022-12-19T18:03:30;18.77;;;10.32;;
31730;SDS011;18310;55.586;12.286;2022-12-19T18:06:40;17.20;;;10.90;;
31730;SDS011;18310;55.586;12.286;2022-12-19T18:09:44;16.83;;;10.35;;
31730;SDS011;18310;55.586;12.286;2022-12-19T18:12:48;16.05;;;9.82;;
31730;SDS011;18310;55.586;12.286;2022-12-19T18:15:52;16.50;;;10.05;;
31730;SDS011;18310;55.586;12.286;2022-12-19T18:19:00;15.02;;;10.77;;
31730;SDS011;18310;55.586;12.286;2022-12-19T18:22:08;17.85;;;10.57;;
31730;SDS011;18310;55.586;12.286;2022-12-19T18:25:16;13.95;;;9.23;;
31730;SDS011;18310;55.586;12.286;2022-12-19T18:28:23;14.80;;;10.00;;
31730;SDS011;18310;55.586;12.286;2022-12-19T18:31:26;14.18;;;10.55;;
31730;SDS011;18310;55.586;12.286;2022-12-19T18:34:30;18.35;;;9.50;;
31730;SDS011;18310;55.586;12.286;2022-12-19T18:37:36;16.77;;;10.45;;
31730;SDS011;18310;55.586;12.286;2022-12-19T18:40:41;14.50;;;9.63;;
31730;SDS011;18310;55.586;12.286;2022-12-19T18:43:45;16.58;;;11.70;;
31730;SDS011;18310;55.586;12.286;2022-12-19T18:46:49;14.38;;;9.38;;
31730;SDS011;18310;55.586;12.286;2022-12-19T18:49:53;15.02;;;9.13;;
31730;SDS011;18310;55.586;12.286;2022-12-19T18:52:57;14.43;;;9.10;;